Terminal Aerodrome Forecast
Issued by NWS Nashville, TN

Home | Current Version | Previous Version | Text Only | Print | Product List | Glossary On
Versions: 1 2 3 4 5 6 7 8 9 10 11 12 13 14 15 16 17 18 19 20 21 22 23 24 25 26 27 28 29 30 31 32 33 34 35 36
224
FTUS44 KOHX 191301 AAB
TAFBNA
TAF AMD
KBNA 191301Z 1913/2012 11005KT 6SM -SHRA SCT004 SCT025
      TEMPO 1913/1916 4SM BR BKN004
     FM191700 12007KT 5SM BR VCSH OVC012
     FM191900 16008KT 2SM RA BR OVC005
     FM200600 20005KT 5SM -SHRA BR OVC020=

USA.gov is the U.S. government's official web portal to all federal, state and local government web resources and services.